createdAt,value
2023-04-18T00:02:11.261Z,87.39
2023-04-18T00:04:38.296Z,88.13
2023-04-18T00:07:05.222Z,87.41
2023-04-18T00:09:32.115Z,88.87
2023-04-18T00:11:59.004Z,85.90
2023-04-18T00:14:25.949Z,82.48
2023-04-18T00:16:54.338Z,80.84
2023-04-18T00:19:21.744Z,87.87
2023-04-18T00:21:49.616Z,87.76
2023-04-18T00:24:16.861Z,83.56
2023-04-18T00:26:43.697Z,83.20
2023-04-18T00:29:10.605Z,83.53
2023-04-18T00:31:37.576Z,84.17
2023-04-18T00:34:04.504Z,83.39
2023-04-18T00:36:31.364Z,81.77
2023-04-18T00:38:58.231Z,82.19
2023-04-18T00:41:27.710Z,77.36
2023-04-18T00:43:55.282Z,78.05
2023-04-18T00:46:22.212Z,76.83
2023-04-18T00:48:49.516Z,77.94
2023-04-18T00:51:16.467Z,78.05
2023-04-18T00:53:44.593Z,77.81
2023-04-18T00:56:11.781Z,79.54
2023-04-18T00:58:40.741Z,82.25
2023-04-18T01:01:08.109Z,84.92
2023-04-18T01:03:35.423Z,82.11
2023-04-18T01:06:02.477Z,84.43
2023-04-18T01:08:29.695Z,82.97
2023-04-18T01:10:56.532Z,82.25
2023-04-18T01:13:23.403Z,82.91
2023-04-18T01:15:51.031Z,81.36
2023-04-18T01:18:18.125Z,88.75
2023-04-18T01:20:49.949Z,88.80
2023-04-18T01:23:18.700Z,89.09
2023-04-18T01:25:46.859Z,86.39
2023-04-18T01:28:14.735Z,87.28
2023-04-18T01:30:41.823Z,86.80
2023-04-18T01:33:08.767Z,85.41
2023-04-18T01:35:35.874Z,86.98
2023-04-18T01:38:02.752Z,81.58
2023-04-18T01:40:30.408Z,81.68
2023-04-18T01:42:57.263Z,80.33
2023-04-18T01:45:24.269Z,83.09
2023-04-18T01:47:51.261Z,83.83
2023-04-18T01:50:18.220Z,83.62
2023-04-18T01:52:45.154Z,82.57
2023-04-18T01:55:12.255Z,84.41
2023-04-18T01:57:39.256Z,80.79
2023-04-18T02:00:07.134Z,80.15
2023-04-18T02:02:34.312Z,81.14
2023-04-18T02:05:01.420Z,79.19
2023-04-18T02:07:28.407Z,79.22
2023-04-18T02:09:55.308Z,77.71
2023-04-18T02:12:22.247Z,73.87
2023-04-18T02:14:54.282Z,77.87
2023-04-18T02:17:23.686Z,77.60
2023-04-18T02:19:53.959Z,76.77
2023-04-18T02:22:20.802Z,78.67
2023-04-18T02:24:47.675Z,77.17
2023-04-18T02:27:14.568Z,77.83
2023-04-18T02:29:41.459Z,76.70
2023-04-18T02:32:09.271Z,78.18
2023-04-18T02:34:36.975Z,77.39
2023-04-18T02:37:04.467Z,77.07
2023-04-18T02:39:31.821Z,76.19
2023-04-18T02:41:58.983Z,79.42
2023-04-18T02:44:25.896Z,82.43
2023-04-18T02:46:52.774Z,81.16
2023-04-18T02:49:19.981Z,79.72
2023-04-18T02:51:46.971Z,80.40
2023-04-18T02:54:13.987Z,76.12
2023-04-18T02:56:42.978Z,79.96
2023-04-18T02:59:09.877Z,78.24
2023-04-18T03:01:37.051Z,78.60
2023-04-18T03:04:04.062Z,75.34
2023-04-18T03:06:31.913Z,74.51
2023-04-18T03:08:58.957Z,76.53
2023-04-18T03:11:25.982Z,77.75
2023-04-18T03:13:53.987Z,80.99
2023-04-18T03:16:21.070Z,79.41
2023-04-18T03:18:48.022Z,73.76
2023-04-18T03:21:15.047Z,78.51
2023-04-18T03:23:41.908Z,79.54
2023-04-18T03:26:09.254Z,79.70
2023-04-18T03:28:36.107Z,79.89
2023-04-18T03:31:03.047Z,78.87
2023-04-18T03:33:29.900Z,77.20
2023-04-18T03:35:56.840Z,78.97
2023-04-18T03:38:23.727Z,78.67
2023-04-18T03:40:50.604Z,80.42
2023-04-18T03:43:18.495Z,80.13
2023-04-18T03:45:47.518Z,83.53
2023-04-18T03:48:14.839Z,80.58
2023-04-18T03:50:41.796Z,82.13
2023-04-18T03:53:08.674Z,82.28
2023-04-18T03:55:35.691Z,85.43
2023-04-18T03:58:02.613Z,85.38
2023-04-18T04:00:29.570Z,79.30
2023-04-18T04:02:56.643Z,79.91
2023-04-18T04:05:23.773Z,79.52
2023-04-18T04:07:50.784Z,80.74
2023-04-18T04:10:17.662Z,79.33
2023-04-18T04:12:44.585Z,79.12
2023-04-18T04:15:12.070Z,77.09
2023-04-18T04:17:39.108Z,79.29
2023-04-18T04:20:06.579Z,79.29
2023-04-18T04:22:34.588Z,75.51
2023-04-18T04:25:01.587Z,76.21
2023-04-18T04:27:28.469Z,76.56
2023-04-18T04:29:56.600Z,73.80
2023-04-18T04:32:24.198Z,73.25
2023-04-18T04:34:51.087Z,74.18
2023-04-18T04:37:18.905Z,73.53
2023-04-18T04:39:46.325Z,75.01
2023-04-18T04:42:13.630Z,77.55
2023-04-18T04:44:41.879Z,76.04
2023-04-18T04:47:08.768Z,72.86
2023-04-18T04:49:35.905Z,71.96
2023-04-18T04:52:03.237Z,71.58
2023-04-18T04:54:30.532Z,73.02
2023-04-18T04:56:57.465Z,75.91
2023-04-18T04:59:24.777Z,72.13
2023-04-18T05:01:51.715Z,74.05
2023-04-18T05:04:18.865Z,78.51
2023-04-18T05:06:46.289Z,78.92
2023-04-18T05:09:13.781Z,73.12
2023-04-18T05:11:40.715Z,71.81
2023-04-18T05:14:07.678Z,69.40
2023-04-18T05:16:34.552Z,68.17
2023-04-18T05:19:01.540Z,69.16
2023-04-18T05:21:29.125Z,70.12
2023-04-18T05:23:58.936Z,66.31
2023-04-18T05:26:25.821Z,65.76
2023-04-18T05:28:52.685Z,67.25
2023-04-18T05:31:19.640Z,66.08
2023-04-18T05:33:46.567Z,64.75
2023-04-18T05:36:13.479Z,65.68
2023-04-18T05:38:40.395Z,65.33
2023-04-18T05:41:07.219Z,64.24
2023-04-18T05:43:34.154Z,64.17
2023-04-18T05:46:01.060Z,65.12
2023-04-18T05:48:27.958Z,69.72
2023-04-18T05:50:54.843Z,73.80
2023-04-18T05:53:21.889Z,78.17
2023-04-18T05:55:49.055Z,82.88
2023-04-18T05:58:16.314Z,90.76
2023-04-18T06:00:48.162Z,87.46
2023-04-18T06:03:15.254Z,89.42
2023-04-18T06:05:42.372Z,94.06
2023-04-18T06:08:09.347Z,95.84
2023-04-18T06:10:38.898Z,97.38
2023-04-18T06:13:06.217Z,92.79
2023-04-18T06:15:33.118Z,97.48
2023-04-18T06:17:59.989Z,93.70
2023-04-18T06:20:26.913Z,96.04
2023-04-18T06:22:53.815Z,99.17
2023-04-18T06:25:20.992Z,98.13
2023-04-18T06:27:50.196Z,99.06
2023-04-18T06:30:17.071Z,100.00
2023-04-18T06:32:44.098Z,100.00
2023-04-18T06:35:11.184Z,100.00
2023-04-18T06:37:38.084Z,100.00
2023-04-18T06:40:05.728Z,100.00
2023-04-18T06:42:32.640Z,100.00
2023-04-18T06:44:59.568Z,100.00
2023-04-18T06:47:26.698Z,100.00
2023-04-18T06:49:55.576Z,100.00
2023-04-18T06:52:22.550Z,100.00
2023-04-18T06:54:49.429Z,100.00
2023-04-18T06:57:16.354Z,100.00
2023-04-18T06:59:43.315Z,100.00
2023-04-18T07:02:10.222Z,100.00
2023-04-18T07:04:37.200Z,100.00
2023-04-18T07:07:05.370Z,100.00
2023-04-18T07:09:32.453Z,97.54
2023-04-18T07:11:59.378Z,99.81
2023-04-18T07:14:28.186Z,95.78
2023-04-18T07:16:56.175Z,95.42
2023-04-18T07:19:23.115Z,100.00
2023-04-18T07:21:50.088Z,100.00
2023-04-18T07:24:17.021Z,97.14
2023-04-18T07:26:44.010Z,92.23
2023-04-18T07:29:20.376Z,91.48
2023-04-18T07:31:47.543Z,90.18
2023-04-18T07:34:15.345Z,92.12
2023-04-18T07:36:42.834Z,91.13
2023-04-18T07:39:13.729Z,91.20
2023-04-18T07:41:40.590Z,90.15
2023-04-18T07:44:07.552Z,94.30
2023-04-18T07:46:34.543Z,94.45
2023-04-18T07:49:02.532Z,96.92
2023-04-18T07:51:31.897Z,94.77
2023-04-18T07:53:59.669Z,95.16
2023-04-18T07:56:27.357Z,96.48
2023-04-18T07:58:54.366Z,98.99
2023-04-18T08:01:24.310Z,96.35
2023-04-18T08:03:53.513Z,98.60
2023-04-18T08:06:21.561Z,99.86
2023-04-18T08:08:51.389Z,100.00
2023-04-18T08:11:18.282Z,100.00
2023-04-18T08:13:45.185Z,100.00
2023-04-18T08:16:12.856Z,100.00
2023-04-18T08:18:41.288Z,100.00
2023-04-18T08:21:08.134Z,100.00
2023-04-18T08:23:34.995Z,100.00
2023-04-18T08:26:01.867Z,100.00
2023-04-18T08:28:29.756Z,100.00
2023-04-18T08:30:56.953Z,100.00
2023-04-18T08:33:24.597Z,100.00
2023-04-18T08:35:52.008Z,100.00
2023-04-18T08:38:19.370Z,100.00
2023-04-18T08:40:46.631Z,100.00
2023-04-18T08:43:15.395Z,100.00
2023-04-18T08:45:43.371Z,100.00
2023-04-18T08:48:16.523Z,100.00
2023-04-18T08:50:45.688Z,99.46
2023-04-18T08:53:12.594Z,100.00
2023-04-18T08:55:40.681Z,100.00
2023-04-18T08:58:08.144Z,100.00
2023-04-18T09:00:35.399Z,98.07
2023-04-18T09:03:03.141Z,98.39
2023-04-18T09:05:30.148Z,99.82
2023-04-18T09:07:57.072Z,97.36
2023-04-18T09:10:33.143Z,100.00
2023-04-18T09:13:03.427Z,99.74
2023-04-18T09:15:33.919Z,100.00
2023-04-18T09:18:03.065Z,95.04
2023-04-18T09:20:38.078Z,90.80
2023-04-18T09:23:11.340Z,91.50
2023-04-18T09:25:49.175Z,89.43
2023-04-18T09:28:29.061Z,85.53
2023-04-18T09:31:11.994Z,87.83
2023-04-18T09:33:45.471Z,90.02
2023-04-18T09:36:20.593Z,93.63
2023-04-18T09:38:51.683Z,93.64
2023-04-18T09:41:21.656Z,93.01
2023-04-18T09:43:48.719Z,89.75
2023-04-18T09:46:17.992Z,93.59
2023-04-18T09:48:45.011Z,91.96
2023-04-18T09:51:15.128Z,93.48
2023-04-18T09:53:47.790Z,94.08
2023-04-18T09:56:26.324Z,93.85
2023-04-18T09:59:12.663Z,100.00
2023-04-18T10:01:46.063Z,99.81
2023-04-18T10:04:14.985Z,97.57
2023-04-18T10:06:45.066Z,98.08
2023-04-18T10:09:12.679Z,98.00
2023-04-18T10:11:39.750Z,98.23
2023-04-18T10:14:12.831Z,97.23
2023-04-18T10:16:40.130Z,99.06
2023-04-18T10:19:27.301Z,100.00
2023-04-18T10:21:55.814Z,100.00
2023-04-18T10:24:48.710Z,97.31
2023-04-18T10:27:17.137Z,95.08
2023-04-18T10:30:02.081Z,99.56
2023-04-18T10:32:29.051Z,98.26
2023-04-18T10:34:56.301Z,99.16
2023-04-18T10:37:23.156Z,98.47
2023-04-18T10:40:06.004Z,98.79
2023-04-18T10:42:48.311Z,100.00
2023-04-18T10:45:25.133Z,99.21
2023-04-18T10:48:31.352Z,97.32
2023-04-18T10:51:14.193Z,100.00
2023-04-18T10:53:49.260Z,100.00
2023-04-18T10:56:16.865Z,95.01
2023-04-18T10:59:03.399Z,98.87
2023-04-18T11:01:33.011Z,95.03
2023-04-18T11:04:00.790Z,100.00
2023-04-18T11:06:28.345Z,94.13
2023-04-18T11:09:11.988Z,97.37
2023-04-18T11:11:38.951Z,94.15
2023-04-18T11:14:05.787Z,96.81
2023-04-18T11:16:33.866Z,97.23
2023-04-18T11:19:01.208Z,95.98
2023-04-18T11:21:30.638Z,92.97
2023-04-18T11:23:58.337Z,89.29
2023-04-18T11:26:29.156Z,86.13
2023-04-18T11:28:59.403Z,91.63
2023-04-18T11:31:26.335Z,89.35
2023-04-18T11:33:56.595Z,91.44
2023-04-18T11:36:23.452Z,90.11
2023-04-18T11:38:50.314Z,89.57
2023-04-18T11:41:17.174Z,87.62
2023-04-18T11:43:45.431Z,89.59
2023-04-18T11:46:13.493Z,85.13
2023-04-18T11:48:42.283Z,89.35
2023-04-18T11:51:32.102Z,81.59
2023-04-18T11:53:58.934Z,80.79
2023-04-18T11:56:25.869Z,78.50
2023-04-18T11:58:52.897Z,77.12
2023-04-18T12:01:23.432Z,78.25
2023-04-18T12:04:10.620Z,77.15
2023-04-18T12:06:51.034Z,78.03
2023-04-18T12:09:18.554Z,77.37
2023-04-18T12:12:00.250Z,79.04
2023-04-18T12:14:27.541Z,79.58
2023-04-18T12:16:54.645Z,78.92
2023-04-18T12:19:27.686Z,80.19
2023-04-18T12:22:00.753Z,78.63
2023-04-18T12:24:30.135Z,82.12
2023-04-18T12:26:58.247Z,74.03
2023-04-18T12:29:26.042Z,75.24
2023-04-18T12:31:53.237Z,74.43
2023-04-18T12:34:20.420Z,75.99
2023-04-18T12:36:47.365Z,71.42
2023-04-18T12:39:14.354Z,71.23
2023-04-18T12:41:41.176Z,72.71
2023-04-18T12:44:08.009Z,78.29
2023-04-18T12:46:34.926Z,74.35
2023-04-18T12:49:01.843Z,78.01
2023-04-18T12:51:28.666Z,78.96
2023-04-18T12:53:55.609Z,81.62
2023-04-18T12:56:22.496Z,80.90
2023-04-18T12:58:49.647Z,81.04
2023-04-18T13:01:17.224Z,84.06
2023-04-18T13:03:45.555Z,85.01
2023-04-18T13:06:15.914Z,82.74
2023-04-18T13:08:42.910Z,80.27
2023-04-18T13:11:09.768Z,80.85
2023-04-18T13:13:36.622Z,82.11
2023-04-18T13:16:03.636Z,81.96
2023-04-18T13:18:30.518Z,79.35
2023-04-18T13:20:57.394Z,80.31
2023-04-18T13:23:24.206Z,83.94
2023-04-18T13:25:51.076Z,80.25
2023-04-18T13:28:17.948Z,82.54
2023-04-18T13:30:44.775Z,78.44
2023-04-18T13:33:11.728Z,78.19
2023-04-18T13:35:38.625Z,78.42
2023-04-18T13:38:05.489Z,78.44
2023-04-18T13:40:33.611Z,75.75
2023-04-18T13:43:00.536Z,74.91
2023-04-18T13:45:27.557Z,73.52
2023-04-18T13:47:54.577Z,74.76
2023-04-18T13:50:21.641Z,72.58
2023-04-18T13:52:49.413Z,70.23
2023-04-18T13:55:16.367Z,72.66
2023-04-18T13:57:43.240Z,73.60
2023-04-18T14:00:12.947Z,70.46
2023-04-18T14:02:40.196Z,70.31
2023-04-18T14:05:07.713Z,73.92
2023-04-18T14:07:35.523Z,73.43
2023-04-18T14:10:02.468Z,72.88
2023-04-18T14:12:29.293Z,74.14
2023-04-18T14:14:56.134Z,73.38
2023-04-18T14:17:23.002Z,72.25
2023-04-18T14:19:51.480Z,69.11
2023-04-18T14:22:18.333Z,68.09
2023-04-18T14:24:45.206Z,70.33
2023-04-18T14:27:12.099Z,68.44
2023-04-18T14:29:38.973Z,69.19
2023-04-18T14:32:07.199Z,69.88
2023-04-18T14:34:35.315Z,73.97
2023-04-18T14:37:03.808Z,78.44
2023-04-18T14:39:31.216Z,78.49
2023-04-18T14:41:58.160Z,80.15
2023-04-18T14:44:25.081Z,83.29
2023-04-18T14:46:51.964Z,80.74
2023-04-18T14:49:18.869Z,73.81
2023-04-18T14:51:45.791Z,78.78
2023-04-18T14:54:12.945Z,75.30
2023-04-18T14:56:39.829Z,74.64
2023-04-18T14:59:06.753Z,72.64
2023-04-18T15:01:33.687Z,75.33
2023-04-18T15:04:00.744Z,80.75
2023-04-18T15:06:28.597Z,79.71
2023-04-18T15:08:56.027Z,80.19
2023-04-18T15:11:23.287Z,82.07
2023-04-18T15:13:50.910Z,83.47
2023-04-18T15:16:17.837Z,81.12
2023-04-18T15:18:45.241Z,79.54
2023-04-18T15:21:12.148Z,77.20
2023-04-18T15:23:39.104Z,76.14
2023-04-18T15:26:06.334Z,79.68
2023-04-18T15:28:33.229Z,77.08
2023-04-18T15:31:00.250Z,80.56
2023-04-18T15:33:27.205Z,79.96
2023-04-18T15:35:55.742Z,81.30
2023-04-18T15:38:22.655Z,82.53
2023-04-18T15:40:49.581Z,83.49
2023-04-18T15:43:17.365Z,81.18
2023-04-18T15:45:44.780Z,80.35
2023-04-18T15:48:13.274Z,84.34
2023-04-18T15:50:42.614Z,80.62
2023-04-18T15:53:09.561Z,82.20
2023-04-18T15:55:36.544Z,78.64
2023-04-18T15:58:03.692Z,81.00
2023-04-18T16:00:30.628Z,80.18
2023-04-18T16:02:57.573Z,78.31
2023-04-18T16:05:24.507Z,85.61
2023-04-18T16:07:53.890Z,85.56
2023-04-18T16:10:20.925Z,86.07
2023-04-18T16:12:47.943Z,84.47
2023-04-18T16:15:14.845Z,91.73
2023-04-18T16:17:41.745Z,91.31
2023-04-18T16:20:09.304Z,92.12
2023-04-18T16:22:36.745Z,96.13
2023-04-18T16:25:04.572Z,94.79
2023-04-18T16:27:31.509Z,95.81
2023-04-18T16:29:59.466Z,94.62
2023-04-18T16:32:26.577Z,92.45
2023-04-18T16:34:53.509Z,93.84
2023-04-18T16:37:20.499Z,92.26
2023-04-18T16:39:50.366Z,89.58
2023-04-18T16:42:17.221Z,86.38
2023-04-18T16:44:45.437Z,86.39
2023-04-18T16:47:12.315Z,84.41
2023-04-18T16:49:45.000Z,79.30
2023-04-18T16:52:11.912Z,77.25
2023-04-18T16:54:38.812Z,78.16
2023-04-18T16:57:05.771Z,77.95
2023-04-18T16:59:46.072Z,78.16
2023-04-18T17:02:13.115Z,80.28
2023-04-18T17:04:40.221Z,81.18
2023-04-18T17:07:07.207Z,82.67
2023-04-18T17:10:31.548Z,90.84
2023-04-18T17:12:58.822Z,86.27
2023-04-18T17:15:27.289Z,82.59
2023-04-18T17:17:56.019Z,83.04
2023-04-18T17:20:23.743Z,85.46
2023-04-18T17:22:51.240Z,82.82
2023-04-18T17:25:18.178Z,80.86
2023-04-18T17:27:45.048Z,81.20
2023-04-18T17:30:12.197Z,79.12
2023-04-18T17:32:45.963Z,78.38
2023-04-18T17:35:14.795Z,75.66
2023-04-18T17:38:01.267Z,74.38
2023-04-18T17:40:28.337Z,75.51
2023-04-18T17:42:55.172Z,81.16
2023-04-18T17:45:22.075Z,76.98
2023-04-18T17:47:57.673Z,79.13
2023-04-18T17:50:24.599Z,80.81
2023-04-18T17:52:51.462Z,79.26
2023-04-18T17:55:18.644Z,77.16
2023-04-18T17:57:45.595Z,72.98
2023-04-18T18:00:13.947Z,72.81
2023-04-18T18:02:42.928Z,69.98
2023-04-18T18:05:13.971Z,69.74
2023-04-18T18:07:43.279Z,71.96
2023-04-18T18:10:19.188Z,71.66
2023-04-18T18:12:46.336Z,72.47
2023-04-18T18:15:13.372Z,72.36
2023-04-18T18:17:40.334Z,73.32
2023-04-18T18:20:10.593Z,72.71
2023-04-18T18:22:37.550Z,77.12
2023-04-18T18:25:05.574Z,78.43
2023-04-18T18:27:32.480Z,74.86
2023-04-18T18:30:18.413Z,74.86
2023-04-18T18:32:45.281Z,77.54
2023-04-18T18:35:12.738Z,75.63
2023-04-18T18:37:39.601Z,78.85
2023-04-18T18:40:07.478Z,76.31
2023-04-18T18:42:34.524Z,76.52
2023-04-18T18:45:01.821Z,76.34
2023-04-18T18:47:30.629Z,76.39
2023-04-18T18:50:12.867Z,72.28
2023-04-18T18:52:43.567Z,85.19
2023-04-18T18:55:11.073Z,94.21
2023-04-18T18:57:37.997Z,99.70
2023-04-18T19:00:09.791Z,96.97
2023-04-18T19:02:37.382Z,96.29
2023-04-18T19:05:05.860Z,95.97
2023-04-18T19:07:33.758Z,95.73
2023-04-18T19:10:10.250Z,85.96
2023-04-18T19:12:38.035Z,80.65
2023-04-18T19:15:06.077Z,80.21
2023-04-18T19:17:33.030Z,80.87
2023-04-18T19:23:04.562Z,79.00
2023-04-18T19:25:31.493Z,73.44
2023-04-18T19:28:35.930Z,76.15
2023-04-18T19:31:02.829Z,75.42
2023-04-18T19:33:30.417Z,71.77
2023-04-18T19:35:57.321Z,72.05
2023-04-18T19:38:43.509Z,68.12
2023-04-18T19:41:10.444Z,76.58
2023-04-18T19:43:38.561Z,81.93
2023-04-18T19:46:05.517Z,84.83
2023-04-18T19:48:43.407Z,82.25
2023-04-18T19:51:10.573Z,82.99
2023-04-18T19:53:37.466Z,76.63
2023-04-18T19:56:04.519Z,72.86
2023-04-18T19:58:34.938Z,78.94
2023-04-18T20:01:02.238Z,85.20
2023-04-18T20:03:29.291Z,89.32
2023-04-18T20:05:56.401Z,97.06
2023-04-18T20:08:25.449Z,93.96
2023-04-18T20:10:52.324Z,92.75
2023-04-18T20:13:19.258Z,97.88
2023-04-18T20:15:46.130Z,97.82
2023-04-18T20:18:13.041Z,99.09
2023-04-18T20:20:39.880Z,98.99
2023-04-18T20:23:06.549Z,96.42
2023-04-18T20:25:36.454Z,92.17
2023-04-18T20:28:11.115Z,96.91
2023-04-18T20:30:38.039Z,96.94
2023-04-18T20:33:05.012Z,92.44
2023-04-18T20:35:31.900Z,87.57
2023-04-18T20:38:00.390Z,82.25
2023-04-18T20:40:28.295Z,76.69
2023-04-18T20:42:58.013Z,74.76
2023-04-18T20:45:25.357Z,75.24
2023-04-18T20:47:52.408Z,76.01
2023-04-18T20:50:20.659Z,83.15
2023-04-18T20:52:47.796Z,77.71
2023-04-18T20:55:16.888Z,76.57
2023-04-18T20:57:43.784Z,74.61
2023-04-18T21:00:14.284Z,72.68
2023-04-18T21:02:41.848Z,72.37
2023-04-18T21:05:09.151Z,72.57
2023-04-18T21:07:36.393Z,72.26
2023-04-18T21:10:04.208Z,75.85
2023-04-18T21:12:31.047Z,77.80
2023-04-18T21:14:57.910Z,77.07
2023-04-18T21:17:25.699Z,75.14
2023-04-18T21:19:52.824Z,81.01
2023-04-18T21:22:19.808Z,84.33
2023-04-18T21:24:47.023Z,80.45
2023-04-18T21:27:15.948Z,77.01
2023-04-18T21:29:48.057Z,70.84
2023-04-18T21:32:14.900Z,72.26
2023-04-18T21:34:41.775Z,68.91
2023-04-18T21:37:08.660Z,68.62
2023-04-18T21:39:45.758Z,72.31
2023-04-18T21:42:12.884Z,75.02
2023-04-18T21:44:39.771Z,73.57
2023-04-18T21:47:06.600Z,75.44
2023-04-18T21:49:34.492Z,72.16
2023-04-18T21:52:01.395Z,70.29
2023-04-18T21:54:28.212Z,75.17
2023-04-18T21:56:55.033Z,82.17
2023-04-18T21:59:44.689Z,84.69
2023-04-18T22:02:11.717Z,89.13
2023-04-18T22:04:42.908Z,89.40
2023-04-18T22:07:11.506Z,92.38
2023-04-18T22:09:48.549Z,91.99
2023-04-18T22:12:15.725Z,92.70
2023-04-18T22:14:48.328Z,91.32
2023-04-18T22:17:15.290Z,97.79
2023-04-18T22:19:44.569Z,93.55
2023-04-18T22:22:11.709Z,90.78
2023-04-18T22:24:38.610Z,84.74
2023-04-18T22:27:05.956Z,86.54
2023-04-18T22:29:46.977Z,88.75
2023-04-18T22:32:13.884Z,89.86
2023-04-18T22:34:40.851Z,86.44
2023-04-18T22:37:07.679Z,82.35
2023-04-18T22:39:50.742Z,79.48
2023-04-18T22:42:17.729Z,75.63
2023-04-18T22:44:44.620Z,72.53
2023-04-18T22:47:11.662Z,72.36
2023-04-18T22:49:54.169Z,66.69
2023-04-18T22:52:23.893Z,72.78
2023-04-18T22:54:53.998Z,69.59
2023-04-18T22:57:21.136Z,70.08
2023-04-18T22:59:49.001Z,69.19
2023-04-18T23:02:16.235Z,68.90
2023-04-18T23:04:45.483Z,66.76
2023-04-18T23:07:12.425Z,64.10
2023-04-18T23:09:39.293Z,66.08
2023-04-18T23:12:06.182Z,67.83
2023-04-18T23:14:34.511Z,70.52
2023-04-18T23:17:01.661Z,67.91
2023-04-18T23:19:28.553Z,66.96
2023-04-18T23:21:55.667Z,69.98
2023-04-18T23:24:22.524Z,67.72
2023-04-18T23:26:49.399Z,67.00
2023-04-18T23:29:26.329Z,65.52
2023-04-18T23:31:53.274Z,66.34
2023-04-18T23:34:20.206Z,65.86
2023-04-18T23:36:47.326Z,68.80
2023-04-18T23:39:47.487Z,68.61
2023-04-18T23:42:14.349Z,66.13
2023-04-18T23:44:41.213Z,66.29
2023-04-18T23:47:08.121Z,63.64
2023-04-18T23:49:59.747Z,62.90
2023-04-18T23:52:26.614Z,62.99
2023-04-18T23:54:53.538Z,64.80
2023-04-18T23:57:20.404Z,65.27
